createdAt,value
2022-09-18T00:02:31.979Z,91.53
2022-09-18T00:07:33.407Z,91.74
2022-09-18T00:12:34.737Z,92.33
2022-09-18T00:17:36.049Z,91.57
2022-09-18T00:22:37.682Z,92.27
2022-09-18T00:27:39.024Z,91.88
2022-09-18T00:32:40.350Z,92.67
2022-09-18T00:37:41.665Z,91.64
2022-09-18T00:42:43.984Z,92.29
2022-09-18T00:47:48.918Z,92.42
2022-09-18T00:53:01.950Z,92.62
2022-09-18T00:58:04.594Z,91.68
2022-09-18T01:03:06.172Z,92.35
2022-09-18T01:08:20.550Z,92.47
2022-09-18T01:13:49.676Z,92.98
2022-09-18T01:19:28.572Z,92.34
2022-09-18T01:24:51.397Z,92.96
2022-09-18T01:30:03.546Z,93.17
2022-09-18T01:35:42.284Z,92.68
2022-09-18T01:40:50.480Z,93.13
2022-09-18T01:45:55.998Z,93.63
2022-09-18T01:51:09.626Z,93.43
2022-09-18T01:56:19.966Z,93.89
2022-09-18T02:01:24.356Z,93.00
2022-09-18T02:06:32.885Z,94.33
2022-09-18T02:11:35.240Z,93.64
2022-09-18T02:16:42.812Z,94.18
2022-09-18T02:21:47.337Z,93.89
2022-09-18T02:26:51.821Z,92.98
2022-09-18T02:31:53.369Z,94.18
2022-09-18T02:37:06.846Z,94.30
2022-09-18T02:42:25.803Z,93.75
2022-09-18T02:47:53.293Z,94.48
2022-09-18T02:53:07.597Z,94.01
2022-09-18T02:58:16.074Z,94.07
2022-09-18T03:03:17.993Z,95.01
2022-09-18T03:08:19.341Z,94.38
2022-09-18T03:13:21.099Z,94.35
2022-09-18T03:18:23.343Z,94.86
2022-09-18T03:23:24.745Z,94.80
2022-09-18T03:28:25.993Z,95.32
2022-09-18T03:33:27.305Z,94.82
2022-09-18T03:38:28.893Z,94.96
2022-09-18T03:43:30.372Z,95.85
2022-09-18T03:48:31.657Z,96.02
2022-09-18T03:53:32.955Z,95.41
2022-09-18T03:58:34.315Z,96.33
2022-09-18T04:03:35.890Z,96.43
2022-09-18T04:08:38.185Z,95.82
2022-09-18T04:13:39.505Z,96.41
2022-09-18T04:18:40.916Z,96.78
2022-09-18T04:23:42.223Z,96.73
2022-09-18T04:28:43.577Z,96.58
2022-09-18T04:33:44.899Z,96.70
2022-09-18T04:38:46.308Z,96.04
2022-09-18T04:43:47.704Z,96.42
2022-09-18T04:48:49.667Z,96.33
2022-09-18T04:53:51.200Z,97.36
2022-09-18T04:58:52.519Z,96.95
2022-09-18T05:03:53.843Z,96.71
2022-09-18T05:08:55.219Z,96.66
2022-09-18T05:13:58.000Z,96.82
2022-09-18T05:18:59.362Z,97.75
2022-09-18T05:24:00.720Z,98.15
2022-09-18T05:29:02.057Z,97.47
2022-09-18T05:34:03.402Z,97.71
2022-09-18T05:39:04.854Z,98.18
2022-09-18T05:44:06.145Z,97.78
2022-09-18T05:49:07.471Z,98.19
2022-09-18T05:54:08.783Z,97.34
2022-09-18T05:59:10.170Z,97.51
2022-09-18T06:04:11.607Z,97.87
2022-09-18T06:09:12.865Z,98.05
2022-09-18T06:14:14.291Z,97.89
2022-09-18T06:19:15.541Z,97.45
2022-09-18T06:24:16.885Z,97.56
2022-09-18T06:29:18.258Z,97.31
2022-09-18T06:34:19.504Z,97.48
2022-09-18T06:39:20.930Z,98.15
2022-09-18T06:44:22.261Z,98.82
2022-09-18T06:49:23.584Z,98.65
2022-09-18T06:54:24.959Z,99.04
2022-09-18T06:59:26.277Z,98.72
2022-09-18T07:04:28.677Z,98.15
2022-09-18T07:09:30.405Z,98.32
2022-09-18T07:14:31.765Z,98.12
2022-09-18T07:19:33.094Z,97.96
2022-09-18T07:24:36.596Z,97.85
2022-09-18T07:29:38.009Z,97.79
2022-09-18T07:34:39.319Z,98.37
2022-09-18T07:39:41.127Z,97.88
2022-09-18T07:44:42.767Z,98.19
2022-09-18T07:49:44.102Z,97.73
2022-09-18T07:54:45.609Z,98.45
2022-09-18T07:59:46.922Z,98.14
2022-09-18T08:04:48.276Z,97.79
2022-09-18T08:09:49.622Z,97.95
2022-09-18T08:14:51.408Z,97.97
2022-09-18T08:19:53.400Z,98.20
2022-09-18T08:24:54.712Z,97.69
2022-09-18T08:29:57.702Z,97.67
2022-09-18T08:35:01.075Z,98.47
2022-09-18T08:40:04.063Z,97.92
2022-09-18T08:45:17.266Z,98.02
2022-09-18T08:50:38.415Z,98.06
2022-09-18T08:55:42.601Z,98.15
2022-09-18T09:00:59.064Z,98.48
2022-09-18T09:06:12.004Z,98.37
2022-09-18T09:11:28.681Z,98.65
2022-09-18T09:16:52.069Z,98.88
2022-09-18T09:22:14.757Z,98.67
2022-09-18T09:27:27.578Z,98.69
2022-09-18T09:32:38.413Z,99.01
2022-09-18T09:37:43.932Z,99.08
2022-09-18T09:43:17.183Z,98.08
2022-09-18T09:48:41.273Z,98.22
2022-09-18T09:53:43.034Z,98.97
2022-09-18T09:59:08.548Z,98.90
2022-09-18T10:04:33.260Z,98.30
2022-09-18T10:09:51.528Z,98.18
2022-09-18T10:14:58.107Z,98.65
2022-09-18T10:19:59.566Z,99.04
2022-09-18T10:25:03.501Z,98.30
2022-09-18T10:30:12.485Z,97.67
2022-09-18T10:35:28.880Z,97.96
2022-09-18T10:40:40.042Z,97.97
2022-09-18T10:45:41.866Z,98.77
2022-09-18T10:51:00.566Z,98.36
2022-09-18T10:56:05.109Z,98.64
2022-09-18T11:01:08.062Z,98.82
2022-09-18T11:06:17.524Z,99.07
2022-09-18T11:11:27.981Z,99.51
2022-09-18T11:16:39.042Z,99.17
2022-09-18T11:21:50.137Z,99.02
2022-09-18T11:26:57.497Z,99.43
2022-09-18T11:32:19.592Z,99.58
2022-09-18T11:37:34.877Z,99.63
2022-09-18T11:42:45.078Z,98.70
2022-09-18T11:48:10.458Z,99.69
2022-09-18T11:53:25.285Z,99.52
2022-09-18T11:58:48.960Z,99.24
2022-09-18T12:04:16.113Z,99.39
2022-09-18T12:09:42.717Z,99.50
2022-09-18T12:15:21.448Z,99.17
2022-09-18T12:20:37.693Z,98.81
2022-09-18T12:26:10.650Z,99.36
2022-09-18T12:31:20.183Z,99.34
2022-09-18T12:36:39.297Z,98.35
2022-09-18T12:41:49.013Z,98.61
2022-09-18T12:47:12.720Z,98.82
2022-09-18T12:52:31.986Z,98.09
2022-09-18T12:57:57.435Z,98.17
2022-09-18T13:03:11.494Z,98.00
2022-09-18T13:08:21.611Z,98.23
2022-09-18T13:13:57.317Z,99.92
2022-09-18T13:19:02.321Z,99.47
2022-09-18T13:24:06.165Z,98.82
2022-09-18T13:29:44.262Z,98.99
2022-09-18T13:35:01.124Z,98.60
2022-09-18T13:40:27.179Z,98.94
2022-09-18T13:45:37.858Z,98.88
2022-09-18T13:50:53.827Z,99.57
2022-09-18T13:55:55.183Z,99.45
2022-09-18T14:00:57.019Z,98.90
2022-09-18T14:05:58.362Z,97.17
2022-09-18T14:11:18.991Z,96.21
2022-09-18T14:16:20.319Z,95.29
2022-09-18T14:21:25.047Z,96.11
2022-09-18T14:26:32.164Z,95.83
2022-09-18T14:31:37.897Z,96.30
2022-09-18T14:36:47.483Z,96.21
2022-09-18T14:41:49.645Z,96.11
2022-09-18T14:47:05.024Z,96.56
2022-09-18T14:52:25.169Z,96.15
2022-09-18T14:57:39.925Z,96.31
2022-09-18T15:02:41.415Z,97.13
2022-09-18T15:07:47.369Z,98.28
2022-09-18T15:12:49.424Z,97.47
2022-09-18T15:17:51.365Z,97.50
2022-09-18T15:22:53.803Z,98.02
2022-09-18T15:27:57.136Z,97.10
2022-09-18T15:33:02.745Z,97.64
2022-09-18T15:38:26.427Z,97.04
2022-09-18T15:43:30.595Z,97.12
2022-09-18T15:48:36.589Z,97.05
2022-09-18T15:53:38.494Z,97.35
2022-09-18T15:58:43.381Z,97.43
2022-09-18T16:03:44.926Z,97.22
2022-09-18T16:08:52.787Z,96.69
2022-09-18T16:13:56.080Z,97.97
2022-09-18T16:19:10.473Z,97.37
2022-09-18T16:24:32.388Z,98.12
2022-09-18T16:29:34.479Z,97.96
2022-09-18T16:34:35.810Z,98.68
2022-09-18T16:39:37.372Z,99.08
2022-09-18T16:44:39.052Z,98.03
2022-09-18T16:49:44.026Z,97.41
2022-09-18T16:54:45.577Z,96.88
2022-09-18T16:59:48.077Z,97.19
2022-09-18T17:04:49.431Z,96.76
2022-09-18T17:09:51.809Z,96.85
2022-09-18T17:14:53.239Z,96.52
2022-09-18T17:19:55.648Z,96.64
2022-09-18T17:24:57.001Z,96.87
2022-09-18T17:29:58.825Z,96.77
2022-09-18T17:35:00.659Z,96.38
2022-09-18T17:40:02.599Z,96.30
2022-09-18T17:45:05.492Z,95.78
2022-09-18T17:50:08.380Z,96.48
2022-09-18T17:55:09.760Z,96.56
2022-09-18T18:00:11.585Z,96.38
2022-09-18T18:05:12.944Z,96.52
2022-09-18T18:10:14.421Z,96.34
2022-09-18T18:15:15.817Z,96.24
2022-09-18T18:20:17.338Z,95.65
2022-09-18T18:25:18.566Z,96.66
2022-09-18T18:30:20.668Z,96.19
2022-09-18T18:35:22.074Z,96.31
2022-09-18T18:40:23.710Z,95.77
2022-09-18T18:45:25.131Z,95.35
2022-09-18T18:50:29.805Z,95.27
2022-09-18T18:55:31.220Z,95.70
2022-09-18T19:00:33.396Z,95.91
2022-09-18T19:05:35.985Z,95.28
2022-09-18T19:10:38.326Z,95.18
2022-09-18T19:15:39.824Z,95.57
2022-09-18T19:20:41.074Z,95.93
2022-09-18T19:25:43.826Z,95.68
2022-09-18T19:30:47.130Z,95.75
2022-09-18T19:35:50.165Z,95.93
2022-09-18T19:40:51.877Z,95.66
2022-09-18T19:45:53.608Z,96.33
2022-09-18T19:50:55.070Z,95.94
2022-09-18T19:55:56.337Z,96.18
2022-09-18T20:01:01.288Z,96.76
2022-09-18T20:06:04.013Z,96.17
2022-09-18T20:11:05.435Z,97.41
2022-09-18T20:16:09.782Z,96.87
2022-09-18T20:21:13.760Z,97.24
2022-09-18T20:26:17.701Z,97.21
2022-09-18T20:31:20.775Z,97.23
2022-09-18T20:36:23.092Z,96.95
2022-09-18T20:41:27.898Z,97.36
2022-09-18T20:46:29.372Z,98.02
2022-09-18T20:51:34.841Z,97.93
2022-09-18T20:56:43.150Z,97.78
2022-09-18T21:01:46.641Z,97.60
2022-09-18T21:06:56.718Z,97.68
2022-09-18T21:11:58.114Z,97.51
2022-09-18T21:16:59.976Z,97.33
2022-09-18T21:22:01.314Z,98.05
2022-09-18T21:27:02.871Z,97.44
2022-09-18T21:32:04.197Z,97.80
2022-09-18T21:37:08.183Z,97.68
2022-09-18T21:42:09.712Z,97.52
2022-09-18T21:47:12.324Z,98.07
2022-09-18T21:52:14.592Z,97.84
2022-09-18T21:57:18.812Z,97.68
2022-09-18T22:02:21.898Z,97.73
2022-09-18T22:07:24.459Z,98.76
2022-09-18T22:12:25.773Z,97.79
2022-09-18T22:17:27.208Z,98.21
2022-09-18T22:22:28.602Z,98.29
2022-09-18T22:27:29.938Z,98.58
2022-09-18T22:32:31.352Z,98.11
2022-09-18T22:37:32.793Z,98.62
2022-09-18T22:42:34.139Z,98.05
2022-09-18T22:47:35.453Z,98.07
2022-09-18T22:52:37.859Z,98.09
2022-09-18T22:57:39.213Z,98.16
2022-09-18T23:02:42.680Z,97.96
2022-09-18T23:07:46.453Z,98.01
2022-09-18T23:12:47.798Z,98.83
2022-09-18T23:17:50.092Z,98.36
2022-09-18T23:22:51.405Z,99.04
2022-09-18T23:27:52.921Z,98.30
2022-09-18T23:32:54.252Z,98.80
2022-09-18T23:37:56.336Z,98.95
2022-09-18T23:42:57.669Z,98.41
2022-09-18T23:47:58.972Z,98.44
2022-09-18T23:53:00.283Z,98.54
2022-09-18T23:58:01.682Z,98.56
